Time;durP1;ratioP1;P1;durP2;ratioP2;P2;SDS_P1;SDS_P2;PMS_P1;PMS_P2;Temp;Humidity;BMP_temperature;BMP_pressure;BME280_temperature;BME280_humidity;BME280_pressure;Samples;Min_cycle;Max_cycle;Signal;HPM_P1;HPM_P2
2021/10/16 00:00:23;;;;;;;3.45;3.17;;;5.00;99.90;;;;;;5039080;28;20080;-92
2021/10/16 00:02:50;;;;;;;3.22;2.88;;;5.00;99.90;;;;;;5039824;28;20127;-93
2021/10/16 00:05:17;;;;;;;2.78;2.58;;;5.00;99.90;;;;;;5040762;28;20140;-93
2021/10/16 00:07:43;;;;;;;2.65;2.55;;;5.00;99.90;;;;;;5038781;28;20069;-93
2021/10/16 00:10:10;;;;;;;5.32;3.45;;;4.90;99.90;;;;;;5039006;28;20055;-93
2021/10/16 00:12:37;;;;;;;2.50;2.40;;;4.90;99.90;;;;;;5038994;28;20106;-92
2021/10/16 00:15:05;;;;;;;2.28;2.17;;;4.90;99.90;;;;;;5038894;28;20136;-93
2021/10/16 00:17:32;;;;;;;3.05;2.85;;;4.90;99.90;;;;;;5038975;28;20059;-93
2021/10/16 00:19:59;;;;;;;3.08;2.88;;;4.80;99.90;;;;;;5038477;28;20144;-93
2021/10/16 00:22:26;;;;;;;3.60;3.00;;;4.80;99.90;;;;;;5038443;28;20505;-94
2021/10/16 00:24:54;;;;;;;3.28;3.00;;;4.80;99.90;;;;;;5038960;28;20140;-94
2021/10/16 00:27:21;;;;;;;3.83;3.30;;;4.80;99.90;;;;;;5039464;28;20132;-93
2021/10/16 00:29:48;;;;;;;4.45;3.63;;;4.80;99.90;;;;;;5056652;28;20048;-93
2021/10/16 00:32:15;;;;;;;3.50;3.30;;;4.80;99.90;;;;;;5051175;28;20080;-93
2021/10/16 00:34:41;;;;;;;3.70;3.40;;;4.60;99.90;;;;;;5038452;28;20471;-93
2021/10/16 00:37:09;;;;;;;3.78;3.45;;;4.60;99.90;;;;;;5038018;28;20049;-93
2021/10/16 00:39:35;;;;;;;3.97;3.47;;;4.70;99.90;;;;;;5038138;28;20057;-93
2021/10/16 00:42:04;;;;;;;3.45;3.15;;;4.60;99.90;;;;;;5038384;28;20140;-92
2021/10/16 00:44:31;;;;;;;3.63;3.13;;;4.60;99.90;;;;;;5038444;28;20072;-92
2021/10/16 00:46:58;;;;;;;4.35;4.05;;;4.60;99.90;;;;;;5038072;28;20071;-93
2021/10/16 00:49:27;;;;;;;2.95;2.75;;;4.50;99.90;;;;;;5038045;28;20140;-94
2021/10/16 00:51:54;;;;;;;4.13;2.70;;;4.60;99.90;;;;;;5038260;28;20152;-93
2021/10/16 00:54:21;;;;;;;18.27;3.35;;;4.60;99.90;;;;;;5038912;28;20136;-92
2021/10/16 00:56:50;;;;;;;2.97;2.78;;;4.60;99.90;;;;;;5037771;28;20126;-94
2021/10/16 00:59:19;;;;;;;2.33;2.22;;;4.50;99.90;;;;;;5038080;28;20045;-92
2021/10/16 01:01:47;;;;;;;5.32;2.97;;;4.50;99.90;;;;;;5037646;28;20079;-93
2021/10/16 01:04:14;;;;;;;8.20;2.92;;;4.50;99.90;;;;;;5037836;28;20094;-92
2021/10/16 01:06:41;;;;;;;4.63;3.45;;;4.50;99.90;;;;;;5037723;28;20048;-94
2021/10/16 01:09:09;;;;;;;4.82;3.88;;;4.50;99.90;;;;;;5037759;28;20079;-93
2021/10/16 01:11:39;;;;;;;3.30;3.00;;;4.50;99.90;;;;;;5039425;28;20087;-93
2021/10/16 01:14:09;;;;;;;4.97;3.42;;;4.50;99.90;;;;;;5037395;28;20049;-93
2021/10/16 01:16:37;;;;;;;3.33;3.10;;;4.50;99.90;;;;;;5037309;28;20045;-92
2021/10/16 01:19:12;;;;;;;5.32;3.00;;;4.50;99.90;;;;;;5038187;28;20465;-93
2021/10/16 01:21:47;;;;;;;3.45;3.20;;;4.50;99.90;;;;;;5037627;28;20087;-94
2021/10/16 01:24:16;;;;;;;6.40;3.28;;;4.40;99.90;;;;;;5055306;28;20541;-93
2021/10/16 01:26:47;;;;;;;3.30;3.10;;;4.40;99.90;;;;;;5037366;28;20132;-93
2021/10/16 01:29:20;;;;;;;3.35;3.08;;;4.40;99.90;;;;;;5037470;28;20482;-93
2021/10/16 01:31:48;;;;;;;4.32;3.15;;;4.40;99.90;;;;;;5037414;28;20131;-94
2021/10/16 01:34:15;;;;;;;3.80;3.28;;;4.50;99.90;;;;;;5038296;28;20045;-92
2021/10/16 01:36:45;;;;;;;3.15;2.95;;;4.40;99.90;;;;;;5037064;28;20140;-93
2021/10/16 01:39:13;;;;;;;3.13;2.85;;;4.40;99.90;;;;;;5036984;28;20563;-93
2021/10/16 01:41:43;;;;;;;5.57;3.42;;;4.40;99.90;;;;;;5036509;28;20049;-93
2021/10/16 01:44:10;;;;;;;3.22;2.92;;;4.40;99.90;;;;;;5054765;28;20136;-93
2021/10/16 01:46:38;;;;;;;2.88;2.67;;;4.40;99.90;;;;;;5050447;28;20043;-94
2021/10/16 01:49:10;;;;;;;9.73;3.05;;;4.40;99.90;;;;;;5058619;28;20076;-94
2021/10/16 01:51:37;;;;;;;2.83;2.63;;;4.30;99.90;;;;;;5037338;28;20060;-93
2021/10/16 01:54:05;;;;;;;4.88;2.97;;;4.30;99.90;;;;;;5064709;28;20544;-94
2021/10/16 01:56:32;;;;;;;2.92;2.72;;;4.30;99.90;;;;;;5036728;28;20052;-93
2021/10/16 01:59:12;;;;;;;2.72;2.50;;;4.20;99.90;;;;;;5053063;28;20583;-93
2021/10/16 02:01:58;;;;;;;4.35;2.55;;;4.30;99.90;;;;;;5053878;28;20045;-94
2021/10/16 02:04:25;;;;;;;2.80;2.60;;;4.20;99.90;;;;;;5036654;28;20053;-92
2021/10/16 02:06:52;;;;;;;4.68;2.60;;;4.20;99.90;;;;;;5036325;28;20140;-93
2021/10/16 02:09:18;;;;;;;2.55;2.45;;;4.20;99.90;;;;;;5038125;28;20045;-95
2021/10/16 02:11:45;;;;;;;1.70;1.60;;;4.20;99.90;;;;;;5054630;28;20048;-93
2021/10/16 02:14:12;;;;;;;1.55;1.52;;;4.10;99.90;;;;;;5036522;28;20044;-93
2021/10/16 02:16:38;;;;;;;2.38;2.17;;;4.10;99.90;;;;;;5036383;28;20405;-93
2021/10/16 02:19:05;;;;;;;2.60;2.40;;;4.10;99.90;;;;;;5036061;28;20053;-93
2021/10/16 02:21:32;;;;;;;4.03;2.50;;;4.00;99.90;;;;;;5037758;28;20045;-93
2021/10/16 02:23:59;;;;;;;3.30;2.63;;;4.00;99.90;;;;;;5036199;28;20135;-94
2021/10/16 02:26:26;;;;;;;8.43;2.50;;;4.00;99.90;;;;;;5037574;28;20076;-95
2021/10/16 02:28:53;;;;;;;3.85;2.58;;;4.00;99.90;;;;;;5038454;28;20051;-93
2021/10/16 02:31:21;;;;;;;1.98;1.88;;;4.00;99.90;;;;;;5036263;28;20051;-94
2021/10/16 02:33:49;;;;;;;2.42;2.33;;;4.00;99.90;;;;;;5053574;28;20059;-94
2021/10/16 02:36:19;;;;;;;3.20;2.17;;;3.90;99.90;;;;;;5054015;28;20076;-93
2021/10/16 02:38:46;;;;;;;3.17;2.42;;;4.00;99.90;;;;;;5053608;28;20076;-92
2021/10/16 02:41:12;;;;;;;4.03;2.17;;;3.90;99.90;;;;;;5052829;28;20502;-93
2021/10/16 02:43:40;;;;;;;2.72;2.30;;;3.90;99.90;;;;;;5054101;28;20053;-93
2021/10/16 02:46:07;;;;;;;3.20;1.98;;;3.90;99.90;;;;;;5053626;28;20136;-94
2021/10/16 02:48:33;;;;;;;2.60;2.40;;;3.90;99.90;;;;;;5035457;28;20044;-94
2021/10/16 02:51:01;;;;;;;2.65;2.03;;;3.90;99.90;;;;;;5053901;28;20049;-93
2021/10/16 02:53:27;;;;;;;2.13;2.03;;;3.80;99.90;;;;;;5035953;28;20063;-93
2021/10/16 02:55:54;;;;;;;2.33;2.10;;;3.90;99.90;;;;;;5035739;28;20143;-93
2021/10/16 02:58:21;;;;;;;2.22;2.00;;;3.90;99.90;;;;;;5053424;28;20059;-93
2021/10/16 03:00:48;;;;;;;3.72;2.03;;;3.90;99.90;;;;;;5035826;28;20045;-94
2021/10/16 03:03:15;;;;;;;2.58;1.92;;;3.80;99.90;;;;;;5058567;28;20081;-93
2021/10/16 03:05:42;;;;;;;1.85;1.75;;;3.80;99.90;;;;;;5058443;28;20029;-92
2021/10/16 03:08:09;;;;;;;1.77;1.67;;;3.80;99.90;;;;;;5059483;28;20052;-92
2021/10/16 03:10:36;;;;;;;2.15;2.05;;;3.70;99.90;;;;;;5036130;28;20041;-93
2021/10/16 03:13:02;;;;;;;3.13;2.15;;;3.70;99.90;;;;;;5053034;28;20089;-93
2021/10/16 03:15:30;;;;;;;2.20;1.85;;;3.60;99.90;;;;;;5035593;28;20049;-93
2021/10/16 03:17:57;;;;;;;1.95;1.60;;;3.70;99.90;;;;;;5035897;28;20088;-92
2021/10/16 03:20:24;;;;;;;4.63;1.90;;;3.70;99.90;;;;;;5053066;28;20049;-93
2021/10/16 03:22:51;;;;;;;1.92;1.70;;;3.60;99.90;;;;;;5035619;28;20053;-92
2021/10/16 03:25:17;;;;;;;2.10;1.90;;;3.60;99.90;;;;;;5035468;28;20133;-92
2021/10/16 03:27:44;;;;;;;1.70;1.60;;;3.60;99.90;;;;;;5035148;28;20057;-93
2021/10/16 03:30:11;;;;;;;1.60;1.50;;;3.60;99.90;;;;;;5035260;28;20051;-93
2021/10/16 03:32:38;;;;;;;2.42;1.83;;;3.60;99.90;;;;;;5052051;28;20057;-92
2021/10/16 03:35:05;;;;;;;2.75;1.80;;;3.50;99.90;;;;;;5035381;28;20055;-91
2021/10/16 03:37:31;;;;;;;4.40;1.60;;;3.50;99.90;;;;;;5036390;28;20055;-92
2021/10/16 03:39:58;;;;;;;2.03;1.92;;;3.50;99.90;;;;;;5035314;28;20092;-92
2021/10/16 03:42:25;;;;;;;3.28;1.77;;;3.50;99.90;;;;;;5035314;28;20140;-92
2021/10/16 03:44:52;;;;;;;2.20;1.98;;;3.50;99.90;;;;;;5052830;28;20143;-93
2021/10/16 03:47:19;;;;;;;2.00;1.90;;;3.50;99.90;;;;;;5035294;28;20092;-94
2021/10/16 03:49:45;;;;;;;3.65;1.75;;;3.50;99.90;;;;;;5053047;28;20144;-94
2021/10/16 03:52:12;;;;;;;3.42;1.90;;;3.50;99.90;;;;;;5035542;28;20140;-92
2021/10/16 03:54:39;;;;;;;2.05;1.95;;;3.40;99.90;;;;;;5036530;28;20087;-93
2021/10/16 03:57:06;;;;;;;2.08;1.90;;;3.40;99.90;;;;;;5054915;28;20045;-93
2021/10/16 03:59:32;;;;;;;1.70;1.60;;;3.40;99.90;;;;;;5056372;28;20081;-94
2021/10/16 04:01:59;;;;;;;3.45;1.58;;;3.40;99.90;;;;;;5039024;28;20048;-93
2021/10/16 04:04:26;;;;;;;2.45;1.40;;;3.40;99.90;;;;;;5038921;28;20049;-93
2021/10/16 04:06:53;;;;;;;2.50;2.00;;;3.30;99.90;;;;;;5038761;28;20094;-91
2021/10/16 04:09:20;;;;;;;3.67;1.90;;;3.30;99.90;;;;;;5038932;28;20119;-93
2021/10/16 04:11:47;;;;;;;2.40;2.20;;;3.30;99.90;;;;;;5038413;28;20091;-93
2021/10/16 04:14:14;;;;;;;2.65;1.80;;;3.30;99.90;;;;;;5038783;28;20132;-93
2021/10/16 04:16:40;;;;;;;1.73;1.63;;;3.30;99.90;;;;;;5038911;28;20461;-92
2021/10/16 04:19:07;;;;;;;1.65;1.55;;;3.30;99.90;;;;;;5039044;28;20052;-92
2021/10/16 04:21:34;;;;;;;2.95;1.77;;;3.30;99.90;;;;;;5068288;28;20096;-95
2021/10/16 04:24:01;;;;;;;1.80;1.70;;;3.30;99.90;;;;;;5070994;28;20033;-93
2021/10/16 04:26:28;;;;;;;2.60;2.38;;;3.30;99.90;;;;;;5038378;28;20080;-93
2021/10/16 04:28:55;;;;;;;1.50;1.40;;;3.30;99.90;;;;;;5055754;28;20052;-93
2021/10/16 04:31:22;;;;;;;2.25;1.70;;;3.30;99.90;;;;;;5038393;28;20486;-91
2021/10/16 04:33:49;;;;;;;1.90;1.80;;;3.30;99.90;;;;;;5038342;28;20048;-93
2021/10/16 04:36:16;;;;;;;1.40;1.30;;;3.30;99.90;;;;;;5038417;28;20049;-93
2021/10/16 04:38:46;;;;;;;2.13;1.30;;;3.30;99.90;;;;;;5038321;28;20055;-94
2021/10/16 04:41:14;;;;;;;3.65;1.65;;;3.20;99.90;;;;;;5055017;28;20076;-93
2021/10/16 04:43:44;;;;;;;4.90;1.52;;;3.10;99.90;;;;;;5038005;28;20128;-93
2021/10/16 04:46:12;;;;;;;1.58;1.48;;;3.20;99.90;;;;;;5038398;28;20183;-92
2021/10/16 04:48:45;;;;;;;1.60;1.50;;;3.10;99.90;;;;;;5038351;28;20056;-92
2021/10/16 04:51:13;;;;;;;1.60;1.17;;;3.10;99.90;;;;;;5038101;28;20127;-93
2021/10/16 04:53:40;;;;;;;2.58;1.50;;;3.10;99.90;;;;;;5039047;28;20127;-92
2021/10/16 04:56:07;;;;;;;2.15;1.40;;;3.00;99.90;;;;;;5037734;28;20057;-92
2021/10/16 04:58:34;;;;;;;1.90;1.63;;;3.10;99.90;;;;;;5038111;28;20049;-92
2021/10/16 05:01:01;;;;;;;1.63;1.55;;;3.10;99.90;;;;;;5037709;28;20460;-92
2021/10/16 05:03:27;;;;;;;3.58;2.03;;;3.10;99.90;;;;;;5037717;28;20052;-94
2021/10/16 05:05:54;;;;;;;1.60;1.50;;;3.10;99.90;;;;;;5037293;28;20147;-92
2021/10/16 05:08:21;;;;;;;1.98;1.70;;;3.10;99.90;;;;;;5036623;28;20157;-92
2021/10/16 05:10:57;;;;;;;1.80;1.58;;;3.10;99.90;;;;;;5038484;28;20103;-94
2021/10/16 05:13:24;;;;;;;2.83;1.50;;;3.00;99.90;;;;;;5038172;28;20095;-92
2021/10/16 05:15:51;;;;;;;5.13;1.70;;;3.00;99.90;;;;;;5039234;28;20052;-92
2021/10/16 05:18:21;;;;;;;2.15;1.65;;;3.00;99.90;;;;;;5037674;28;20143;-92
2021/10/16 05:20:51;;;;;;;3.72;1.70;;;3.00;99.90;;;;;;5037351;28;20053;-92
2021/10/16 05:23:18;;;;;;;3.88;1.50;;;3.00;99.90;;;;;;5037933;28;20063;-93
2021/10/16 05:25:46;;;;;;;1.27;1.27;;;3.00;99.90;;;;;;5037477;28;20500;-93
2021/10/16 05:28:13;;;;;;;1.40;1.30;;;2.90;99.90;;;;;;5037905;28;20136;-94
2021/10/16 05:30:40;;;;;;;2.28;1.23;;;2.90;99.90;;;;;;5037869;28;20080;-92
2021/10/16 05:33:07;;;;;;;1.33;1.23;;;2.90;99.90;;;;;;5037281;28;20072;-92
2021/10/16 05:35:34;;;;;;;1.80;1.70;;;2.80;99.90;;;;;;5037005;28;20077;-92
2021/10/16 05:38:01;;;;;;;1.40;1.40;;;2.80;99.90;;;;;;5038819;28;20083;-93
2021/10/16 05:40:28;;;;;;;1.20;1.10;;;2.80;99.90;;;;;;5061346;28;20112;-90
2021/10/16 05:42:55;;;;;;;12.18;1.70;;;2.80;99.90;;;;;;5077308;28;20061;-93
2021/10/16 05:45:22;;;;;;;2.72;1.35;;;2.80;99.90;;;;;;5040551;28;20082;-92
2021/10/16 05:47:48;;;;;;;1.50;1.30;;;2.70;99.90;;;;;;5037377;28;20112;-93
2021/10/16 05:50:16;;;;;;;1.92;1.73;;;2.70;99.90;;;;;;5036761;28;20081;-92
2021/10/16 05:52:42;;;;;;;2.55;1.52;;;2.70;99.90;;;;;;5036868;28;20045;-93
2021/10/16 05:55:10;;;;;;;2.85;1.58;;;2.70;99.90;;;;;;5037785;28;20128;-93
2021/10/16 05:57:36;;;;;;;1.60;1.50;;;2.80;99.90;;;;;;5036690;28;20073;-93
2021/10/16 06:00:04;;;;;;;1.77;1.67;;;2.70;99.90;;;;;;5036875;28;20073;-92
2021/10/16 06:02:32;;;;;;;1.48;1.38;;;2.70;99.90;;;;;;5036644;28;20060;-93
2021/10/16 06:04:59;;;;;;;2.17;1.92;;;2.70;99.90;;;;;;5036750;28;20446;-94
2021/10/16 06:07:25;;;;;;;1.88;1.77;;;2.70;99.90;;;;;;5036814;28;20072;-94
2021/10/16 06:09:52;;;;;;;2.10;1.67;;;2.80;99.90;;;;;;5036396;28;20561;-93
2021/10/16 06:12:19;;;;;;;2.75;1.40;;;2.80;99.90;;;;;;5037094;28;20052;-94
2021/10/16 06:14:46;;;;;;;2.10;1.17;;;2.90;99.90;;;;;;5036886;28;20457;-93
2021/10/16 06:17:13;;;;;;;2.78;1.33;;;2.90;99.90;;;;;;5038703;28;20072;-94
2021/10/16 06:19:41;;;;;;;1.50;1.40;;;2.90;99.90;;;;;;5036886;28;20073;-94
2021/10/16 06:22:11;;;;;;;2.55;1.75;;;2.90;99.90;;;;;;5038001;28;20490;-95
2021/10/16 06:24:38;;;;;;;1.83;1.17;;;2.90;99.90;;;;;;5036236;28;20064;-92
2021/10/16 06:27:04;;;;;;;2.17;2.00;;;3.00;99.90;;;;;;5036372;28;20152;-93
2021/10/16 06:29:31;;;;;;;1.33;1.30;;;3.00;99.90;;;;;;5036093;28;20057;-94
2021/10/16 06:31:58;;;;;;;1.52;1.05;;;3.10;99.90;;;;;;5037722;28;20157;-94
2021/10/16 06:34:25;;;;;;;1.80;1.70;;;3.10;99.90;;;;;;5036351;28;20076;-93
2021/10/16 06:36:51;;;;;;;2.78;1.50;;;3.10;99.90;;;;;;5037471;28;20080;-92
2021/10/16 06:39:18;;;;;;;1.60;1.50;;;3.10;99.90;;;;;;5054807;28;20148;-94
2021/10/16 06:41:45;;;;;;;1.90;1.77;;;3.20;99.90;;;;;;5054901;28;20496;-94
2021/10/16 06:44:12;;;;;;;4.95;1.95;;;3.20;99.90;;;;;;5038684;28;20463;-93
2021/10/16 06:46:40;;;;;;;3.22;1.55;;;3.20;99.90;;;;;;5036948;28;20140;-94
2021/10/16 06:49:07;;;;;;;2.10;1.70;;;3.20;99.90;;;;;;5037719;28;20136;-94
2021/10/16 06:51:34;;;;;;;1.58;1.35;;;3.30;99.90;;;;;;5036544;28;20064;-95
2021/10/16 06:54:02;;;;;;;1.70;1.40;;;3.30;99.90;;;;;;5035762;28;20556;-94
2021/10/16 06:56:29;;;;;;;1.15;1.05;;;3.30;99.90;;;;;;5047838;28;20029;-93
2021/10/16 06:58:56;;;;;;;2.55;1.40;;;3.40;99.90;;;;;;5060840;28;20041;-92
2021/10/16 07:01:22;;;;;;;1.40;1.30;;;3.50;99.90;;;;;;5039751;28;20108;-94
2021/10/16 07:03:49;;;;;;;1.15;1.15;;;3.60;99.90;;;;;;5037830;28;20502;-94
2021/10/16 07:06:17;;;;;;;1.15;1.05;;;3.60;99.90;;;;;;5041456;28;20072;-93
2021/10/16 07:08:44;;;;;;;1.40;1.30;;;3.60;99.90;;;;;;5038924;28;20123;-95
2021/10/16 07:11:11;;;;;;;1.52;1.20;;;3.50;99.90;;;;;;5038088;28;20135;-95
2021/10/16 07:13:38;;;;;;;3.25;1.50;;;3.50;99.90;;;;;;5037200;28;20501;-94
2021/10/16 07:16:05;;;;;;;1.00;1.00;;;3.60;99.90;;;;;;5037079;28;20439;-94
2021/10/16 07:18:32;;;;;;;0.93;0.93;;;3.70;99.90;;;;;;5044241;28;20075;-95
2021/10/16 07:20:59;;;;;;;3.42;1.20;;;3.80;99.90;;;;;;5036226;28;20065;-93
2021/10/16 07:23:46;;;;;;;1.30;1.30;;;3.80;99.90;;;;;;5039690;28;20089;-94
2021/10/16 07:26:13;;;;;;;4.07;1.50;;;3.80;99.90;;;;;;5036401;28;20160;-93
2021/10/16 07:28:40;;;;;;;1.63;1.13;;;3.80;99.90;;;;;;5036127;28;20076;-92
2021/10/16 07:31:07;;;;;;;1.65;1.10;;;3.80;99.90;;;;;;5036582;28;20143;-93
2021/10/16 07:33:34;;;;;;;1.30;1.00;;;3.80;99.90;;;;;;5039554;28;20044;-93
2021/10/16 07:36:01;;;;;;;4.07;1.00;;;4.00;99.90;;;;;;5040164;28;20056;-93
2021/10/16 07:38:28;;;;;;;0.70;0.70;;;4.10;99.90;;;;;;5039872;28;20140;-93
2021/10/16 07:40:55;;;;;;;1.13;1.02;;;4.20;99.90;;;;;;5040891;28;20091;-93
2021/10/16 07:43:22;;;;;;;2.15;1.40;;;4.30;99.90;;;;;;5041530;28;20056;-92
2021/10/16 07:45:49;;;;;;;4.85;1.52;;;4.30;99.90;;;;;;5040231;28;20063;-92
2021/10/16 07:48:16;;;;;;;1.45;1.35;;;4.40;99.90;;;;;;5039191;28;20049;-94
2021/10/16 07:50:44;;;;;;;4.57;1.25;;;4.50;99.90;;;;;;5039459;28;20144;-93
2021/10/16 07:53:10;;;;;;;1.45;1.27;;;4.60;99.90;;;;;;5039783;28;20117;-94
2021/10/16 07:55:37;;;;;;;1.77;1.20;;;4.70;99.90;;;;;;5039186;28;20572;-92
2021/10/16 07:58:04;;;;;;;5.78;1.50;;;4.80;99.90;;;;;;5038888;28;20476;-94
2021/10/16 08:00:31;;;;;;;4.90;2.63;;;5.00;99.90;;;;;;5039514;28;20080;-93
2021/10/16 08:02:58;;;;;;;6.28;1.42;;;5.00;99.90;;;;;;5039523;28;20051;-94
2021/10/16 08:05:25;;;;;;;10.40;6.72;;;5.20;99.90;;;;;;5039230;28;20053;-93
2021/10/16 08:07:52;;;;;;;5.65;2.63;;;5.40;99.90;;;;;;5039018;28;20074;-94
2021/10/16 08:10:21;;;;;;;2.50;2.30;;;5.50;99.90;;;;;;5039532;28;20130;-93
2021/10/16 08:12:48;;;;;;;1.77;1.67;;;5.50;99.90;;;;;;5040413;28;20049;-94
2021/10/16 08:15:15;;;;;;;1.20;1.20;;;5.50;99.90;;;;;;5057917;28;20049;-91
2021/10/16 08:17:42;;;;;;;1.38;1.30;;;5.60;99.90;;;;;;5070309;28;20048;-93
2021/10/16 08:20:10;;;;;;;1.20;1.10;;;5.70;99.90;;;;;;5039189;28;20072;-93
2021/10/16 08:22:41;;;;;;;3.10;1.33;;;5.90;99.90;;;;;;5039215;28;20053;-93
2021/10/16 08:25:10;;;;;;;5.13;1.30;;;6.20;99.90;;;;;;5038624;28;20126;-94
2021/10/16 08:27:37;;;;;;;2.58;1.40;;;6.60;99.90;;;;;;5039042;28;20091;-94
2021/10/16 08:30:06;;;;;;;1.20;1.10;;;6.50;99.90;;;;;;5038292;28;20068;-94
2021/10/16 08:32:34;;;;;;;1.50;1.40;;;6.20;99.90;;;;;;5038450;28;20072;-93
2021/10/16 08:35:01;;;;;;;1.42;1.33;;;5.90;99.90;;;;;;5038440;28;20087;-92
2021/10/16 08:37:28;;;;;;;2.05;1.73;;;6.10;99.90;;;;;;5038709;28;20080;-93
2021/10/16 08:39:55;;;;;;;3.03;2.35;;;6.10;99.90;;;;;;5039386;28;20092;-93
2021/10/16 08:42:21;;;;;;;2.50;2.30;;;6.30;99.90;;;;;;5038179;28;20113;-93
2021/10/16 08:44:48;;;;;;;4.88;3.40;;;6.40;99.90;;;;;;5055804;28;20143;-93
2021/10/16 08:47:17;;;;;;;4.78;2.75;;;6.20;99.90;;;;;;5038428;28;20076;-93
2021/10/16 08:49:46;;;;;;;3.70;2.95;;;6.00;99.90;;;;;;5037963;28;20063;-93
2021/10/16 08:52:15;;;;;;;4.43;2.45;;;6.00;99.90;;;;;;5038553;28;20131;-92
2021/10/16 08:54:41;;;;;;;9.93;6.13;;;6.70;99.90;;;;;;5039702;28;20148;-94
2021/10/16 08:57:08;;;;;;;6.55;5.40;;;8.40;99.90;;;;;;5038829;28;20481;-93
2021/10/16 08:59:37;;;;;;;3.63;2.50;;;10.20;99.90;;;;;;5039706;28;20454;-95
2021/10/16 09:02:07;;;;;;;4.03;1.65;;;11.70;99.90;;;;;;5043440;28;20136;-93
2021/10/16 09:04:35;;;;;;;1.05;1.05;;;14.10;99.90;;;;;;5041348;28;20114;-92
2021/10/16 09:07:23;;;;;;;1.30;1.20;;;15.90;99.90;;;;;;5039627;28;20489;-91
2021/10/16 09:09:51;;;;;;;0.75;0.50;;;18.30;95.60;;;;;;5041112;28;20053;-91
2021/10/16 09:12:18;;;;;;;0.75;0.60;;;19.00;92.30;;;;;;5039370;28;20045;-91
2021/10/16 09:14:50;;;;;;;0.70;0.60;;;19.20;88.30;;;;;;5038224;28;20065;-91
2021/10/16 09:17:18;;;;;;;0.98;0.80;;;21.10;84.00;;;;;;5038210;28;20056;-92
2021/10/16 09:19:46;;;;;;;2.25;0.65;;;21.30;79.00;;;;;;5039776;28;20057;-92
2021/10/16 09:22:18;;;;;;;1.30;0.70;;;21.70;77.80;;;;;;5047401;28;20067;-95
2021/10/16 09:24:53;;;;;;;2.15;1.38;;;22.20;77.00;;;;;;5039618;28;20076;-92
2021/10/16 09:27:23;;;;;;;0.90;0.90;;;22.60;74.00;;;;;;5037410;28;20049;-92
2021/10/16 09:29:51;;;;;;;0.57;0.50;;;23.50;72.00;;;;;;5038356;28;20067;-91
2021/10/16 09:32:23;;;;;;;1.80;0.70;;;23.80;68.60;;;;;;5058335;28;20029;-90
2021/10/16 09:35:00;;;;;;;1.27;0.90;;;24.30;66.30;;;;;;5052406;28;20130;-91
2021/10/16 09:37:27;;;;;;;2.08;0.73;;;23.50;67.20;;;;;;5054859;28;20080;-90
2021/10/16 09:39:57;;;;;;;3.55;1.00;;;23.80;68.50;;;;;;5037421;28;20087;-92
2021/10/16 09:42:29;;;;;;;2.72;1.15;;;23.40;69.50;;;;;;5037155;28;20068;-91
2021/10/16 09:45:01;;;;;;;2.80;1.05;;;24.40;66.60;;;;;;5053550;28;20057;-92
2021/10/16 09:47:28;;;;;;;1.88;0.75;;;24.00;66.10;;;;;;5036794;28;20087;-91
2021/10/16 09:49:57;;;;;;;3.60;0.80;;;24.60;67.20;;;;;;5036424;28;20160;-91
2021/10/16 09:52:39;;;;;;;2.33;1.00;;;25.00;68.40;;;;;;5036979;28;20049;-90
2021/10/16 09:55:14;;;;;;;4.47;1.10;;;24.60;65.40;;;;;;5036006;28;20132;-92
2021/10/16 09:57:43;;;;;;;3.67;1.02;;;24.20;65.60;;;;;;5036295;28;20079;-90
2021/10/16 10:00:10;;;;;;;5.85;1.35;;;22.60;69.00;;;;;;5036573;28;20135;-91
2021/10/16 10:02:38;;;;;;;7.15;2.05;;;23.60;70.10;;;;;;5036991;28;20390;-89
2021/10/16 10:05:07;;;;;;;2.53;1.00;;;23.40;68.60;;;;;;5036474;28;20059;-90
2021/10/16 10:07:35;;;;;;;5.20;1.35;;;23.70;68.60;;;;;;5036501;28;20056;-91
2021/10/16 10:10:06;;;;;;;4.45;1.30;;;23.50;68.10;;;;;;5036079;28;20131;-91
2021/10/16 10:12:33;;;;;;;5.28;1.50;;;23.60;72.50;;;;;;5053807;28;20132;-90
2021/10/16 10:15:00;;;;;;;4.82;1.20;;;23.10;70.80;;;;;;5036426;28;20484;-91
2021/10/16 10:17:30;;;;;;;6.57;1.30;;;22.80;71.30;;;;;;5036391;28;20049;-90
2021/10/16 10:20:01;;;;;;;6.45;1.40;;;22.60;70.90;;;;;;5053708;28;20053;-90
2021/10/16 10:22:32;;;;;;;3.63;1.20;;;22.80;73.10;;;;;;5036401;28;20485;-91
2021/10/16 10:24:59;;;;;;;5.45;1.30;;;23.80;71.60;;;;;;5036321;28;20084;-91
2021/10/16 10:27:26;;;;;;;8.38;1.23;;;24.80;67.80;;;;;;5036509;28;20148;-90
2021/10/16 10:29:54;;;;;;;4.53;0.95;;;25.70;66.20;;;;;;5036218;28;20386;-93
2021/10/16 10:32:26;;;;;;;6.90;3.53;;;25.10;65.50;;;;;;5036225;28;20087;-90
2021/10/16 10:35:04;;;;;;;4.75;2.83;;;24.20;67.50;;;;;;5036076;28;20059;-91
2021/10/16 10:37:38;;;;;;;5.75;1.05;;;23.90;66.80;;;;;;5036036;28;20460;-90
2021/10/16 10:40:14;;;;;;;4.93;1.30;;;23.20;67.40;;;;;;5035826;28;20136;-91
2021/10/16 10:42:52;;;;;;;5.80;1.23;;;24.50;66.70;;;;;;5052558;28;20103;-90
2021/10/16 10:45:28;;;;;;;7.68;2.00;;;24.90;63.00;;;;;;5036027;28;20110;-91
2021/10/16 10:47:58;;;;;;;3.70;1.10;;;25.70;59.80;;;;;;5042308;28;20112;-90
2021/10/16 10:50:41;;;;;;;7.50;4.05;;;26.60;59.20;;;;;;5077651;28;20033;-90
2021/10/16 10:53:11;;;;;;;157.52;113.75;;;26.40;62.40;;;;;;5037991;28;20415;-90
2021/10/16 10:55:51;;;;;;;5.35;2.78;;;26.20;58.00;;;;;;5035826;28;20127;-91
2021/10/16 10:58:20;;;;;;;4.57;1.23;;;27.90;55.90;;;;;;5052545;28;20045;-89
2021/10/16 11:00:47;;;;;;;4.22;1.52;;;28.10;56.10;;;;;;5035872;28;20048;-89
2021/10/16 11:03:30;;;;;;;52.85;40.25;;;28.30;53.50;;;;;;5035039;28;20044;-90
2021/10/16 11:06:20;;;;;;;67.00;52.85;;;27.10;53.90;;;;;;5036057;28;20472;-91
2021/10/16 11:08:49;;;;;;;7.50;2.40;;;24.50;56.50;;;;;;5040010;28;20136;-90
2021/10/16 11:11:16;;;;;;;4.93;2.42;;;22.40;60.00;;;;;;5039626;28;20135;-90
2021/10/16 11:13:43;;;;;;;5.13;1.48;;;22.40;59.80;;;;;;5039985;28;20445;-91
2021/10/16 11:16:10;;;;;;;5.25;1.60;;;22.90;60.50;;;;;;5039703;28;20148;-90
2021/10/16 11:18:38;;;;;;;7.97;3.22;;;22.80;57.60;;;;;;5039634;28;20056;-90
2021/10/16 11:21:12;;;;;;;1.42;0.82;;;21.90;59.60;;;;;;5039685;28;20135;-90
2021/10/16 11:23:41;;;;;;;5.47;1.00;;;22.10;60.20;;;;;;5041192;28;20076;-90
2021/10/16 11:26:11;;;;;;;2.50;0.80;;;22.50;59.50;;;;;;5040472;28;20136;-90
2021/10/16 11:28:40;;;;;;;3.90;1.10;;;21.10;63.00;;;;;;5041828;28;20497;-91
2021/10/16 11:31:10;;;;;;;3.25;1.10;;;19.80;65.50;;;;;;5047140;28;20120;-91
2021/10/16 11:33:41;;;;;;;5.55;1.00;;;19.00;67.80;;;;;;5042617;28;20140;-91
2021/10/16 11:36:09;;;;;;;4.97;0.98;;;19.20;70.90;;;;;;5042774;28;20049;-91
2021/10/16 11:38:38;;;;;;;8.20;1.98;;;19.60;70.30;;;;;;5040850;28;20099;-92
2021/10/16 11:41:07;;;;;;;3.10;1.00;;;18.60;73.10;;;;;;5058880;28;20067;-91
2021/10/16 11:43:36;;;;;;;3.55;0.95;;;17.00;79.80;;;;;;5040947;28;20524;-90
2021/10/16 11:46:05;;;;;;;4.60;1.30;;;16.40;83.60;;;;;;5040243;28;20056;-91
2021/10/16 11:48:35;;;;;;;6.65;1.75;;;15.70;89.70;;;;;;5040310;28;20136;-91
2021/10/16 11:51:05;;;;;;;2.10;0.90;;;15.00;93.50;;;;;;5040128;28;20140;-90
2021/10/16 11:53:34;;;;;;;24.90;3.85;;;14.60;98.10;;;;;;5040742;28;20055;-89
2021/10/16 11:56:09;;;;;;;8.13;1.30;;;14.20;99.90;;;;;;5041480;28;20311;-91
2021/10/16 11:58:38;;;;;;;3.35;1.13;;;14.40;99.90;;;;;;5061071;28;20052;-91
2021/10/16 12:01:11;;;;;;;3.15;1.20;;;14.80;99.90;;;;;;5042552;28;20127;-90
2021/10/16 12:03:45;;;;;;;4.07;0.83;;;14.80;99.90;;;;;;5044159;28;20045;-91
2021/10/16 12:06:14;;;;;;;7.90;1.25;;;14.70;99.90;;;;;;5057362;28;20076;-91
2021/10/16 12:08:46;;;;;;;4.63;0.93;;;15.00;99.90;;;;;;5063969;28;20129;-90
2021/10/16 12:11:21;;;;;;;6.70;1.00;;;15.00;99.90;;;;;;5039789;28;20103;-90
2021/10/16 12:14:01;;;;;;;3.50;1.02;;;15.00;99.90;;;;;;5039437;28;20497;-90
2021/10/16 12:16:40;;;;;;;3.45;0.90;;;14.80;99.90;;;;;;5055903;28;20070;-90
2021/10/16 12:19:13;;;;;;;9.35;1.17;;;14.80;99.90;;;;;;5039385;28;20051;-91
2021/10/16 12:21:43;;;;;;;2.95;1.10;;;14.90;99.90;;;;;;5039089;28;20147;-90
2021/10/16 12:24:16;;;;;;;7.32;1.50;;;14.50;99.90;;;;;;5039613;28;20051;-90
2021/10/16 12:26:49;;;;;;;4.18;1.00;;;14.40;99.90;;;;;;5039394;28;20051;-89
2021/10/16 12:29:34;;;;;;;4.32;1.13;;;14.40;99.90;;;;;;5039680;28;20052;-90
2021/10/16 12:32:04;;;;;;;2.40;0.85;;;14.40;99.90;;;;;;5039888;28;20144;-91
2021/10/16 12:34:34;;;;;;;5.40;1.38;;;14.60;98.20;;;;;;5040078;28;20055;-91
2021/10/16 12:37:06;;;;;;;4.57;1.00;;;14.50;96.70;;;;;;5042024;28;20132;-91
2021/10/16 12:39:39;;;;;;;2.70;1.23;;;14.70;95.90;;;;;;5058700;28;20061;-92
2021/10/16 12:42:13;;;;;;;9.77;1.40;;;14.80;96.10;;;;;;5064932;28;20446;-96
2021/10/16 12:44:42;;;;;;;6.20;1.42;;;14.90;96.10;;;;;;5060215;28;20081;-91
2021/10/16 12:47:18;;;;;;;5.22;1.17;;;14.80;94.60;;;;;;5056482;28;20139;-90
2021/10/16 12:49:48;;;;;;;5.40;1.00;;;14.70;94.70;;;;;;5038882;28;20143;-90
2021/10/16 12:52:37;;;;;;;3.85;0.85;;;14.40;97.80;;;;;;5038997;28;20059;-90
2021/10/16 12:55:14;;;;;;;5.05;1.20;;;14.40;98.20;;;;;;5038802;28;20041;-90
2021/10/16 12:58:00;;;;;;;4.78;1.58;;;14.30;99.20;;;;;;5055308;28;20095;-90
2021/10/16 13:00:29;;;;;;;1.80;0.88;;;14.10;99.50;;;;;;5039023;28;20059;-91